Tuftonboro, NH (03864)

1:23 AM EDT on September 02, 2014 (GMT -0400)
Ossipee Woods | Change Station
CLOSE
Current Station
Personal Weather Station
Location: Ossipee, NH
Elevation: 653 ft
Nearby Weather Stations

Elev 653 ft 43.69 °N, 71.10 °W | Updated 3 minutes ago

Clear
Clear
61.5 °F
Feels Like 61.5 °F
N
0.0
Wind Variable Wind from WSW
Gusts 2.0 mph

Today
High -- | Low -- °F
--% Chance of Precip.
Yesterday
High -- | Low -- °F
Precip. -- in
6:09 AM 7:18 PM
Waxing Crescent, 48% visible
Pressure 29.92 in
Visibility 7.0 miles
Clouds Clear
Dew Point 61 °F
Humidity 97%
Rainfall 0.00 in
Snow Depth Not available.
UV 0 out of 12
Pollen 5.50 out of 12
Ozone Good
Flu Activity Not available.
METAR KLCI 020515Z AUTO 00000KT 7SM CLR 18/17 A2992 RMK AO1

More Conditions Fewer Conditions

Pressure 29.92 in
Visibility 7.0 miles
Clouds Clear
Dew Point 61 °F
Humidity 97%
Rainfall 0.00 in
Snow Depth Not available.
UV 0 out of 12
Pollen 5.50 out of 12
Ozone Good
Flu Activity Not available.
METAR KLCI 020515Z AUTO 00000KT 7SM CLR 18/17 A2992 RMK AO1

More Conditions Fewer Conditions

10-Day Weather Forecast

Almanac

Astronomy

Sep. 02, 2014 Rise Set
Actual Time 6:09 AM EDT 7:18 PM EDT
Civil Twilight 5:39 AM EDT 7:47 PM EDT
Nautical Twilight 5:04 AM EDT 8:22 PM EDT
Astronomical Twilight 4:26 AM EDT 9:00 PM EDT
Moon 2:03 PM EDT 11:55 PM EDT
Length of Visible Light 14h 08m
Length of Day
13h 09m
Tomorrow will be 2m 54s shorter.
Waxing Crescent, 48% of the Moon is Illuminated
Today
Waxing Crescent
Sep 2
First Quarter
Sep 8
Full
Sep 15
Last Quarter
Sep 24
New

Today's Extremes

State Highs State Lows

Community

WunderPhotos

Upload Photos

1,749,575 photos uploaded!

WunderBlogs® & News

Nearby

Air Quality

  Air Quality AQ Index Pollutant
Yesterday Good
OZONE
Current Good
OZONE
Monday Good
PM2.5
Monday Good
OZONE

Snow Depth

Station Depth Elevation
No new snow has been reported.

Earthquake Activity

City Distance Mag. Time & Date
No recent earthquake activity has been reported nearby.
Minimum magnitude displayed is 2.5.

Coastal Water Temperatures

Place Temperature
No Stations Reporting

Nearby Weather Stations